Time;durP1;ratioP1;P1;durP2;ratioP2;P2;SDS_P1;SDS_P2;PMS_P1;PMS_P2;Temp;Humidity;BMP_temperature;BMP_pressure;BME280_temperature;BME280_humidity;BME280_pressure;Samples;Min_cycle;Max_cycle;Signal;HPM_P1;HPM_P2
2023/09/08 00:01:20;;;;;;;11.13;6.65;;;18.10;99.90;;;;;;5069777;28;20537;-59
2023/09/08 00:03:46;;;;;;;14.82;7.80;;;18.00;99.90;;;;;;5069342;28;20041;-59
2023/09/08 00:06:12;;;;;;;9.50;7.45;;;18.00;99.90;;;;;;5068677;28;20044;-60
2023/09/08 00:08:37;;;;;;;7.28;6.72;;;18.10;99.90;;;;;;5061098;28;20044;-59
2023/09/08 00:11:04;;;;;;;8.93;7.80;;;18.00;99.90;;;;;;5070070;28;20119;-58
2023/09/08 00:13:30;;;;;;;8.13;7.30;;;18.10;99.90;;;;;;5070595;28;20119;-58
2023/09/08 00:15:56;;;;;;;7.80;7.10;;;18.10;99.90;;;;;;5070154;28;20116;-60
2023/09/08 00:18:21;;;;;;;8.05;7.25;;;18.10;99.90;;;;;;5070281;28;20082;-60
2023/09/08 00:20:47;;;;;;;8.45;7.70;;;18.00;99.90;;;;;;5061354;28;20383;-59
2023/09/08 00:23:12;;;;;;;11.07;7.22;;;18.10;99.90;;;;;;5068737;28;20044;-60
2023/09/08 00:25:38;;;;;;;9.23;7.05;;;18.10;99.90;;;;;;5062967;28;20037;-59
2023/09/08 00:28:04;;;;;;;10.35;7.20;;;18.10;99.90;;;;;;5070405;28;20570;-59
2023/09/08 00:30:29;;;;;;;;;;;18.00;99.90;;;;;;5064289;28;20041;-59
2023/09/08 00:32:55;;;;;;;8.48;6.97;;;18.00;99.90;;;;;;5070777;28;19943;-59
2023/09/08 00:35:20;;;;;;;9.57;7.45;;;17.90;99.90;;;;;;5065002;28;20029;-59
2023/09/08 00:37:46;;;;;;;8.18;7.50;;;17.90;99.90;;;;;;5070849;28;20094;-61
2023/09/08 00:40:11;;;;;;;8.80;7.82;;;17.90;99.90;;;;;;5067881;28;20383;-60
2023/09/08 00:42:37;;;;;;;9.70;8.77;;;17.90;99.90;;;;;;5071160;28;20035;-59
2023/09/08 00:45:03;;;;;;;9.35;7.70;;;17.80;99.90;;;;;;5067860;28;20058;-59
2023/09/08 00:47:29;;;;;;;10.45;7.80;;;17.80;99.90;;;;;;5056326;28;20145;-58
2023/09/08 00:49:55;;;;;;;10.50;8.38;;;17.80;99.90;;;;;;5063462;28;20124;-59
2023/09/08 00:52:21;;;;;;;13.30;7.70;;;17.80;99.90;;;;;;5070677;28;20039;-60
2023/09/08 00:54:46;;;;;;;8.85;7.57;;;17.60;99.90;;;;;;5056786;28;20432;-59
2023/09/08 00:57:12;;;;;;;7.75;7.05;;;17.60;99.90;;;;;;5067483;28;20029;-59
2023/09/08 00:59:38;;;;;;;7.90;6.95;;;17.50;99.90;;;;;;5069784;28;20104;-59
2023/09/08 01:02:04;;;;;;;7.28;6.65;;;17.40;99.90;;;;;;5068606;28;20035;-59
2023/09/08 01:04:30;;;;;;;9.20;7.28;;;17.30;99.90;;;;;;5068923;28;20047;-59
2023/09/08 01:06:56;;;;;;;6.65;5.93;;;17.20;99.90;;;;;;5068138;28;20049;-59
2023/09/08 01:09:24;;;;;;;11.98;7.20;;;17.20;99.90;;;;;;5069276;28;20044;-59
2023/09/08 01:11:49;;;;;;;7.35;6.63;;;17.10;99.90;;;;;;5068310;28;20490;-60
2023/09/08 01:14:18;;;;;;;11.60;7.80;;;17.10;99.90;;;;;;5067585;28;20115;-59
2023/09/08 01:16:44;;;;;;;11.68;7.05;;;17.00;99.90;;;;;;5069143;28;20028;-59
2023/09/08 01:19:13;;;;;;;9.20;7.45;;;17.00;99.90;;;;;;5068924;28;20599;-60
2023/09/08 01:22:03;;;;;;;15.43;7.55;;;16.80;99.90;;;;;;5068620;28;20037;-60
2023/09/08 01:25:06;;;;;;;8.50;7.75;;;16.80;99.90;;;;;;5068207;28;20417;-59
2023/09/08 01:27:37;;;;;;;9.15;8.27;;;16.70;99.90;;;;;;5062213;28;20078;-59
2023/09/08 01:30:05;;;;;;;10.57;8.63;;;16.60;99.90;;;;;;5069070;28;20071;-59
2023/09/08 01:32:31;;;;;;;8.95;8.02;;;16.50;99.90;;;;;;5067578;28;20440;-58
2023/09/08 01:34:59;;;;;;;8.88;7.30;;;16.50;99.90;;;;;;5069452;28;20043;-59
2023/09/08 01:37:25;;;;;;;11.00;7.00;;;16.50;99.90;;;;;;5055788;28;20041;-59
2023/09/08 01:39:51;;;;;;;7.97;7.28;;;16.50;99.90;;;;;;5068608;28;20094;-58
2023/09/08 01:42:17;;;;;;;8.00;6.57;;;16.50;99.90;;;;;;5068380;28;20398;-59
2023/09/08 01:44:42;;;;;;;11.40;6.18;;;16.50;99.90;;;;;;5069419;28;20536;-60
2023/09/08 01:47:08;;;;;;;8.25;6.40;;;16.40;99.90;;;;;;5063827;28;20430;-59
2023/09/08 01:49:33;;;;;;;7.97;7.15;;;16.40;99.90;;;;;;5056160;28;20119;-59
2023/09/08 01:51:59;;;;;;;8.13;6.65;;;16.30;99.90;;;;;;5068787;28;20089;-60
2023/09/08 01:54:24;;;;;;;9.32;7.72;;;16.30;99.90;;;;;;5068542;28;20051;-59
2023/09/08 01:56:51;;;;;;;8.05;7.25;;;16.30;99.90;;;;;;5064382;28;20110;-59
2023/09/08 01:59:16;;;;;;;;;;;16.30;99.90;;;;;;5069368;28;20044;-59
2023/09/08 02:01:42;;;;;;;10.73;6.80;;;16.30;99.90;;;;;;5065002;28;19916;-60
2023/09/08 02:04:08;;;;;;;8.98;7.55;;;16.20;99.90;;;;;;5069065;28;20119;-60
2023/09/08 02:06:33;;;;;;;8.38;7.65;;;16.20;99.90;;;;;;5064962;28;20094;-60
2023/09/08 02:08:59;;;;;;;8.10;7.30;;;16.20;99.90;;;;;;5063239;28;20555;-58
2023/09/08 02:11:24;;;;;;;8.88;8.10;;;16.20;99.90;;;;;;5067387;28;20064;-60
2023/09/08 02:13:52;;;;;;;8.43;7.72;;;16.20;99.90;;;;;;5072011;28;20040;-60
2023/09/08 02:16:17;;;;;;;14.02;9.60;;;16.30;99.90;;;;;;5062673;28;20455;-57
2023/09/08 02:18:44;;;;;;;9.32;8.32;;;16.30;99.90;;;;;;5068042;28;20033;-60
2023/09/08 02:21:10;;;;;;;8.90;8.10;;;16.40;99.90;;;;;;5065021;28;20044;-61
2023/09/08 02:23:36;;;;;;;9.43;7.78;;;16.30;99.90;;;;;;5061965;28;20433;-61
2023/09/08 02:26:01;;;;;;;8.50;7.72;;;16.30;99.90;;;;;;5055455;28;20115;-59
2023/09/08 02:28:27;;;;;;;8.68;7.97;;;16.30;99.90;;;;;;5061720;28;20475;-59
2023/09/08 02:30:53;;;;;;;12.05;8.82;;;16.30;99.90;;;;;;5073709;28;20217;-59
2023/09/08 02:33:19;;;;;;;13.43;8.48;;;16.30;99.90;;;;;;5070495;28;20052;-59
2023/09/08 02:35:44;;;;;;;14.13;9.35;;;16.30;99.90;;;;;;5071857;28;20063;-60
2023/09/08 02:38:10;;;;;;;11.32;10.25;;;16.30;99.90;;;;;;5070536;28;20173;-59
2023/09/08 02:40:35;;;;;;;12.15;10.85;;;16.40;99.90;;;;;;5073376;28;20048;-59
2023/09/08 02:43:02;;;;;;;12.25;11.00;;;16.40;99.90;;;;;;5071453;28;20064;-59
2023/09/08 02:45:27;;;;;;;12.50;11.30;;;16.50;99.90;;;;;;5072611;28;20036;-59
2023/09/08 02:47:53;;;;;;;8.50;7.47;;;16.60;99.90;;;;;;5068098;28;20070;-59
2023/09/08 02:50:19;;;;;;;11.63;6.93;;;16.50;99.90;;;;;;5072396;28;20557;-60
2023/09/08 02:52:45;;;;;;;8.93;8.13;;;16.50;99.90;;;;;;5067898;28;20048;-59
2023/09/08 02:55:11;;;;;;;9.45;8.60;;;16.50;99.90;;;;;;5069629;28;20036;-61
2023/09/08 02:57:37;;;;;;;11.57;10.43;;;16.40;99.90;;;;;;5069351;28;20115;-59
2023/09/08 03:00:04;;;;;;;11.57;10.48;;;16.40;99.90;;;;;;5072393;28;20460;-58
2023/09/08 03:02:30;;;;;;;11.95;10.75;;;16.40;99.90;;;;;;5070401;28;20500;-59
2023/09/08 03:04:56;;;;;;;;;;;16.40;99.90;;;;;;5072873;28;20086;-60
2023/09/08 03:07:22;;;;;;;10.70;9.70;;;16.40;99.90;;;;;;5067935;28;19928;-59
2023/09/08 03:09:47;;;;;;;12.35;9.80;;;16.40;99.90;;;;;;5071877;28;20039;-60
2023/09/08 03:12:13;;;;;;;10.65;9.65;;;16.40;99.90;;;;;;5071387;28;20507;-59
2023/09/08 03:14:39;;;;;;;11.65;10.35;;;16.40;99.90;;;;;;5060381;28;20139;-60
2023/09/08 03:17:05;;;;;;;10.18;9.40;;;16.40;99.90;;;;;;5061649;28;20556;-58
2023/09/08 03:19:30;;;;;;;10.07;9.23;;;16.30;99.90;;;;;;5063469;28;20040;-61
2023/09/08 03:21:56;;;;;;;9.75;8.85;;;16.30;99.90;;;;;;5070629;28;20029;-58
2023/09/08 03:24:22;;;;;;;12.50;9.70;;;16.20;99.90;;;;;;5064920;28;20535;-60
2023/09/08 03:26:47;;;;;;;12.25;9.57;;;16.10;99.90;;;;;;5071749;28;20028;-59
2023/09/08 03:29:13;;;;;;;10.40;9.30;;;16.00;99.90;;;;;;5063026;28;20115;-61
2023/09/08 03:31:39;;;;;;;10.43;9.43;;;16.00;99.90;;;;;;5070685;28;20385;-61
2023/09/08 03:34:04;;;;;;;;;;;16.00;99.90;;;;;;5062367;28;20202;-59
2023/09/08 03:36:30;;;;;;;11.70;10.55;;;16.00;99.90;;;;;;5069669;28;20927;-59
2023/09/08 03:38:57;;;;;;;;;;;15.90;99.90;;;;;;5060530;28;20043;-59
2023/09/08 03:41:23;;;;;;;9.93;8.10;;;15.90;99.90;;;;;;5072255;28;20393;-60
2023/09/08 03:43:49;;;;;;;9.20;7.68;;;15.90;99.90;;;;;;5064920;28;20059;-59
2023/09/08 03:46:14;;;;;;;9.73;8.88;;;15.90;99.90;;;;;;5067072;28;20045;-59
2023/09/08 03:48:40;;;;;;;11.02;9.85;;;15.90;99.90;;;;;;5067114;28;20493;-60
2023/09/08 03:51:06;;;;;;;10.32;8.95;;;15.80;99.90;;;;;;5071957;28;20111;-59
2023/09/08 03:53:31;;;;;;;11.25;9.23;;;15.80;99.90;;;;;;5066879;28;20044;-60
2023/09/08 03:55:57;;;;;;;10.07;9.15;;;15.80;99.90;;;;;;5071178;28;20091;-59
2023/09/08 03:58:22;;;;;;;11.20;10.15;;;15.70;99.90;;;;;;5068191;28;20437;-59
2023/09/08 04:00:48;;;;;;;11.15;9.93;;;15.60;99.90;;;;;;5066609;28;20037;-60
2023/09/08 04:03:14;;;;;;;11.35;10.35;;;15.50;99.90;;;;;;5060625;28;20064;-59
2023/09/08 04:05:39;;;;;;;13.48;11.88;;;15.50;99.90;;;;;;5071065;28;20085;-60
2023/09/08 04:08:05;;;;;;;18.40;13.68;;;15.50;99.90;;;;;;5063183;28;20375;-60
2023/09/08 04:10:31;;;;;;;13.35;12.05;;;15.50;99.90;;;;;;5070625;28;20049;-59
2023/09/08 04:12:56;;;;;;;13.10;11.82;;;15.50;99.90;;;;;;5068747;28;20120;-59
2023/09/08 04:15:22;;;;;;;15.75;12.82;;;15.50;99.90;;;;;;5069106;28;20032;-57
2023/09/08 04:17:48;;;;;;;14.27;12.82;;;15.40;99.90;;;;;;5070814;28;20107;-59
2023/09/08 04:20:14;;;;;;;15.27;12.88;;;15.40;99.90;;;;;;5070213;28;20090;-59
2023/09/08 04:22:40;;;;;;;16.02;14.52;;;15.40;99.90;;;;;;5063270;28;20033;-60
2023/09/08 04:25:06;;;;;;;17.48;15.68;;;15.40;99.90;;;;;;5060861;28;20127;-58
2023/09/08 04:27:32;;;;;;;17.13;15.25;;;15.50;99.90;;;;;;5068854;28;20128;-60
2023/09/08 04:29:59;;;;;;;17.17;15.23;;;15.50;99.90;;;;;;5065878;28;20049;-60
2023/09/08 04:32:25;;;;;;;16.27;14.45;;;15.50;99.90;;;;;;5067732;28;20417;-59
2023/09/08 04:34:50;;;;;;;;;;;15.60;99.90;;;;;;5062267;28;20036;-59
2023/09/08 04:37:16;;;;;;;15.73;14.13;;;15.60;99.90;;;;;;5062907;28;19916;-59
2023/09/08 04:39:42;;;;;;;21.25;13.88;;;15.60;99.90;;;;;;5067627;28;20108;-60
2023/09/08 04:42:07;;;;;;;14.55;12.73;;;15.60;99.90;;;;;;5066509;28;20485;-60
2023/09/08 04:44:33;;;;;;;13.40;11.98;;;15.60;99.90;;;;;;5057664;28;20032;-59
2023/09/08 04:46:59;;;;;;;13.77;12.45;;;15.60;99.90;;;;;;5071027;28;20486;-58
2023/09/08 04:49:24;;;;;;;13.43;12.10;;;15.60;99.90;;;;;;5064808;28;20037;-60
2023/09/08 04:51:50;;;;;;;12.95;11.65;;;15.70;99.90;;;;;;5070937;28;20040;-60
2023/09/08 04:54:16;;;;;;;18.38;13.23;;;15.60;99.90;;;;;;5069260;28;20533;-59
2023/09/08 04:56:41;;;;;;;13.75;12.45;;;15.70;99.90;;;;;;5069981;28;20033;-59
2023/09/08 04:59:07;;;;;;;13.93;12.57;;;15.70;99.90;;;;;;5064590;28;20052;-58
2023/09/08 05:01:36;;;;;;;15.95;11.90;;;15.70;99.90;;;;;;5069907;28;20028;-60
2023/09/08 05:04:02;;;;;;;17.70;14.63;;;15.70;99.90;;;;;;5068216;28;20120;-58
2023/09/08 05:06:27;;;;;;;16.13;14.52;;;15.70;99.90;;;;;;5068473;28;20119;-59
2023/09/08 05:08:53;;;;;;;21.75;15.32;;;15.70;99.90;;;;;;5067653;28;20548;-58
2023/09/08 05:11:19;;;;;;;17.25;15.50;;;15.80;99.90;;;;;;5069190;28;20455;-58
2023/09/08 05:13:46;;;;;;;15.25;13.57;;;15.80;99.90;;;;;;5069499;28;20076;-59
2023/09/08 05:16:12;;;;;;;13.63;12.18;;;15.90;99.90;;;;;;5069816;28;20032;-59
2023/09/08 05:18:41;;;;;;;14.73;13.20;;;15.80;99.90;;;;;;5062001;28;20029;-58
2023/09/08 05:21:09;;;;;;;15.50;13.02;;;15.80;99.90;;;;;;5061493;28;20032;-59
2023/09/08 05:23:35;;;;;;;16.75;14.18;;;15.90;99.90;;;;;;5062872;28;20047;-60
2023/09/08 05:26:00;;;;;;;18.17;14.77;;;15.80;99.90;;;;;;5069823;28;20029;-60
2023/09/08 05:28:26;;;;;;;21.70;15.57;;;15.80;99.90;;;;;;5067553;28;20036;-59
2023/09/08 05:30:52;;;;;;;16.35;14.73;;;15.90;99.90;;;;;;5065675;28;20619;-58
2023/09/08 05:33:18;;;;;;;21.40;14.32;;;15.90;99.90;;;;;;5063953;28;20041;-59
2023/09/08 05:35:45;;;;;;;15.55;14.05;;;16.00;99.90;;;;;;5046406;28;20039;-60
2023/09/08 05:38:11;;;;;;;17.42;13.90;;;16.00;99.90;;;;;;5050897;28;20298;-60
2023/09/08 05:40:36;;;;;;;17.95;14.85;;;16.00;99.90;;;;;;5050324;28;20564;-60
2023/09/08 05:43:02;;;;;;;18.02;14.73;;;16.10;99.90;;;;;;5054182;28;20310;-60
2023/09/08 05:45:27;;;;;;;16.15;14.27;;;16.10;99.90;;;;;;5048547;28;20525;-58
2023/09/08 05:47:53;;;;;;;15.68;14.00;;;16.20;99.90;;;;;;5054987;28;20037;-57
2023/09/08 05:50:19;;;;;;;16.80;14.32;;;16.30;99.90;;;;;;5066294;28;20046;-59
2023/09/08 05:52:44;;;;;;;17.23;14.68;;;16.40;99.90;;;;;;5063597;28;20117;-59
2023/09/08 05:55:10;;;;;;;14.82;13.40;;;16.50;99.90;;;;;;5064872;28;20032;-59
2023/09/08 05:57:36;;;;;;;17.17;14.45;;;16.50;99.90;;;;;;5062836;28;20083;-60
2023/09/08 06:00:05;;;;;;;;;;;16.70;99.90;;;;;;5056875;28;20050;-59
2023/09/08 06:02:31;;;;;;;15.05;13.40;;;16.80;99.90;;;;;;5060062;28;19975;-59
2023/09/08 06:04:56;;;;;;;15.38;12.98;;;17.00;99.90;;;;;;5064013;28;20075;-59
2023/09/08 06:07:22;;;;;;;18.88;13.18;;;17.20;99.90;;;;;;5067952;28;20071;-58
2023/09/08 06:09:48;;;;;;;16.17;13.38;;;17.40;99.90;;;;;;5068116;28;20048;-58
2023/09/08 06:12:13;;;;;;;14.23;12.93;;;17.60;99.90;;;;;;5060422;28;20029;-60
2023/09/08 06:14:39;;;;;;;14.38;12.80;;;17.80;99.90;;;;;;5068539;28;20155;-59
2023/09/08 06:17:04;;;;;;;14.32;12.88;;;17.90;99.90;;;;;;5068866;28;20417;-60
2023/09/08 06:19:30;;;;;;;20.65;14.32;;;18.10;99.90;;;;;;5059149;28;20101;-58
2023/09/08 06:21:55;;;;;;;17.35;14.32;;;18.20;99.90;;;;;;5066160;28;20037;-59
2023/09/08 06:24:21;;;;;;;19.17;13.93;;;18.30;99.90;;;;;;5065621;28;20047;-56
2023/09/08 06:26:47;;;;;;;14.77;13.40;;;18.30;99.90;;;;;;5063313;28;20040;-60
2023/09/08 06:29:12;;;;;;;21.70;14.60;;;18.30;99.90;;;;;;5063966;28;20067;-58
2023/09/08 06:31:38;;;;;;;15.38;13.98;;;18.40;99.90;;;;;;5057569;28;20036;-59
2023/09/08 06:34:03;;;;;;;18.35;14.02;;;18.40;99.90;;;;;;5052240;28;20041;-60
2023/09/08 06:36:29;;;;;;;13.35;11.60;;;18.50;99.90;;;;;;5058259;28;20041;-59
2023/09/08 06:38:55;;;;;;;12.88;11.70;;;18.60;99.90;;;;;;5051131;28;20037;-60
2023/09/08 06:41:20;;;;;;;13.35;11.93;;;18.60;99.90;;;;;;5058375;28;20705;-61
2023/09/08 06:43:46;;;;;;;13.75;12.30;;;18.70;99.90;;;;;;5054415;28;20068;-60
2023/09/08 06:46:11;;;;;;;14.60;13.15;;;18.80;99.90;;;;;;5047431;28;20083;-60
2023/09/08 06:48:37;;;;;;;14.00;12.38;;;18.90;99.90;;;;;;5049213;28;20041;-59
2023/09/08 06:51:03;;;;;;;16.33;13.45;;;18.90;99.90;;;;;;5052434;28;20052;-59
2023/09/08 06:53:28;;;;;;;13.60;12.20;;;19.00;99.90;;;;;;5051851;28;20049;-61
2023/09/08 06:55:54;;;;;;;18.70;12.07;;;19.00;99.90;;;;;;5051567;28;20037;-61
2023/09/08 06:58:19;;;;;;;13.25;11.73;;;19.10;99.90;;;;;;5051418;28;20527;-62
2023/09/08 07:00:45;;;;;;;;;;;19.30;99.90;;;;;;5060071;28;20107;-63
2023/09/08 07:03:11;;;;;;;21.17;12.75;;;19.30;99.90;;;;;;5068742;28;19925;-62
2023/09/08 07:05:39;;;;;;;;;;;19.40;99.90;;;;;;5058910;28;20028;-61
2023/09/08 07:08:06;;;;;;;13.80;12.20;;;19.50;99.90;;;;;;5056643;28;19920;-62
2023/09/08 07:10:31;;;;;;;14.93;12.13;;;19.60;99.90;;;;;;5055432;28;20041;-61
2023/09/08 07:12:57;;;;;;;12.63;11.43;;;19.70;99.90;;;;;;5058898;28;20054;-62
2023/09/08 07:15:22;;;;;;;;;;;19.80;99.90;;;;;;5055269;28;20058;-61
2023/09/08 07:17:48;;;;;;;15.18;11.40;;;19.90;99.90;;;;;;5053110;28;19920;-60
2023/09/08 07:20:14;;;;;;;13.57;12.18;;;19.90;99.90;;;;;;5055447;28;20043;-61
2023/09/08 07:22:39;;;;;;;;;;;20.00;99.90;;;;;;5056457;28;20052;-60
2023/09/08 07:25:06;;;;;;;13.85;12.32;;;20.10;99.90;;;;;;5054989;28;19924;-59
2023/09/08 07:27:31;;;;;;;12.18;11.10;;;20.20;99.90;;;;;;5059626;28;20405;-59
2023/09/08 07:29:57;;;;;;;12.27;10.95;;;20.30;99.90;;;;;;5058444;28;20029;-59
2023/09/08 07:32:24;;;;;;;;;;;20.40;99.90;;;;;;5054483;28;20490;-61
2023/09/08 07:34:54;;;;;;;12.43;11.15;;;20.40;99.90;;;;;;5060908;28;20007;-61
2023/09/08 07:37:24;;;;;;;12.60;11.40;;;20.50;99.90;;;;;;5064425;28;20066;-60
2023/09/08 07:39:50;;;;;;;11.75;10.23;;;20.60;99.90;;;;;;5054448;28;20033;-60
2023/09/08 07:42:16;;;;;;;13.63;11.27;;;20.70;99.90;;;;;;5056304;28;20033;-60
2023/09/08 07:44:42;;;;;;;;;;;20.80;99.90;;;;;;5060425;28;20444;-59
2023/09/08 07:47:07;;;;;;;13.43;11.05;;;20.90;99.90;;;;;;5051924;28;19924;-61
2023/09/08 07:49:34;;;;;;;;;;;21.00;99.90;;;;;;5055196;28;20065;-59
2023/09/08 07:52:00;;;;;;;12.70;10.90;;;21.10;99.90;;;;;;5058603;28;19955;-59
2023/09/08 07:54:25;;;;;;;;;;;21.20;99.90;;;;;;5063816;28;20037;-60
2023/09/08 07:56:51;;;;;;;12.00;10.20;;;21.30;99.90;;;;;;5054352;28;19940;-58
2023/09/08 07:59:16;;;;;;;;;;;21.40;99.90;;;;;;5060163;28;20075;-61
2023/09/08 08:01:42;;;;;;;13.95;11.45;;;21.50;99.90;;;;;;5060172;28;20476;-60
2023/09/08 08:04:07;;;;;;;;;;;21.70;99.90;;;;;;5054239;28;20175;-62
2023/09/08 08:06:33;;;;;;;35.30;11.73;;;21.80;99.90;;;;;;5052598;28;19916;-60
2023/09/08 08:08:58;;;;;;;18.55;9.85;;;21.90;99.90;;;;;;5058861;28;20040;-61
2023/09/08 08:11:25;;;;;;;;;;;22.10;99.90;;;;;;5054035;28;20033;-60
2023/09/08 08:13:51;;;;;;;30.50;10.40;;;22.20;99.90;;;;;;5057309;28;19972;-60
2023/09/08 08:16:16;;;;;;;;;;;22.40;99.90;;;;;;5066366;28;20118;-59
2023/09/08 08:18:42;;;;;;;11.23;8.88;;;22.50;99.90;;;;;;5049579;28;19932;-61
2023/09/08 08:21:07;;;;;;;10.25;9.20;;;22.70;99.90;;;;;;5059350;28;20044;-62
2023/09/08 08:23:33;;;;;;;;;;;22.80;99.90;;;;;;5057127;28;20047;-57
2023/09/08 08:25:59;;;;;;;16.38;8.38;;;22.90;99.90;;;;;;5052202;28;20405;-60
2023/09/08 08:28:25;;;;;;;20.75;8.52;;;23.00;99.90;;;;;;5056597;28;20049;-60
2023/09/08 08:30:51;;;;;;;;;;;23.20;99.90;;;;;;5056065;28;20040;-61
2023/09/08 08:33:17;;;;;;;8.55;7.00;;;23.30;99.90;;;;;;5057629;28;19928;-58
2023/09/08 08:35:48;;;;;;;;;;;23.40;99.90;;;;;;5055089;28;20033;-60
2023/09/08 08:38:14;;;;;;;9.07;8.13;;;23.50;99.90;;;;;;5048765;28;19921;-59
2023/09/08 08:40:39;;;;;;;;;;;23.60;99.90;;;;;;5055176;28;20426;-59
2023/09/08 08:43:05;;;;;;;11.35;7.50;;;23.70;99.90;;;;;;5054516;28;20000;-57
2023/09/08 08:45:32;;;;;;;14.35;6.82;;;23.70;99.90;;;;;;5054232;28;20036;-58
2023/09/08 08:47:58;;;;;;;11.10;6.90;;;23.80;99.90;;;;;;5067154;28;20040;-56
2023/09/08 08:50:24;;;;;;;7.72;6.90;;;23.90;99.90;;;;;;5055728;28;20506;-58
2023/09/08 08:52:51;;;;;;;8.38;6.50;;;24.00;99.90;;;;;;5052745;28;20037;-57
2023/09/08 08:55:16;;;;;;;9.45;6.43;;;24.10;99.90;;;;;;5055127;28;20053;-58
2023/09/08 08:57:42;;;;;;;9.90;6.13;;;24.20;99.90;;;;;;5053769;28;20048;-58
2023/09/08 09:00:15;;;;;;;6.03;5.40;;;24.30;99.90;;;;;;5061456;28;20056;-57
2023/09/08 09:02:42;;;;;;;6.40;5.80;;;24.40;99.90;;;;;;5061923;28;20043;-61
2023/09/08 09:05:12;;;;;;;6.03;4.82;;;24.50;99.90;;;;;;5060971;28;20147;-61
2023/09/08 09:07:41;;;;;;;5.40;4.90;;;24.60;99.90;;;;;;5064806;28;20036;-60
2023/09/08 09:10:08;;;;;;;7.13;4.93;;;24.60;99.90;;;;;;5066426;28;20048;-60
2023/09/08 09:12:35;;;;;;;4.90;4.50;;;24.70;99.90;;;;;;5048237;28;20051;-59
2023/09/08 09:15:04;;;;;;;8.82;5.00;;;24.70;99.90;;;;;;5050812;28;20048;-60
2023/09/08 09:17:33;;;;;;;4.55;4.22;;;24.90;99.90;;;;;;5059287;28;20043;-60
2023/09/08 09:20:15;;;;;;;7.57;4.97;;;25.00;99.90;;;;;;5055633;28;20115;-60
2023/09/08 09:22:40;;;;;;;9.77;5.45;;;25.10;99.90;;;;;;5061056;28;20028;-58
2023/09/08 09:25:07;;;;;;;6.57;4.75;;;25.20;99.90;;;;;;5062559;28;20124;-60
2023/09/08 09:27:37;;;;;;;5.50;4.07;;;25.30;99.90;;;;;;5061902;28;20051;-58
2023/09/08 09:30:03;;;;;;;4.93;4.25;;;25.50;99.90;;;;;;5058105;28;20048;-59
2023/09/08 09:32:30;;;;;;;8.43;5.20;;;25.50;99.90;;;;;;5062773;28;20397;-61
2023/09/08 09:34:57;;;;;;;6.03;3.92;;;25.70;99.90;;;;;;5065751;28;20065;-61
2023/09/08 09:37:23;;;;;;;6.35;4.03;;;25.80;99.90;;;;;;5063747;28;20169;-60
2023/09/08 09:39:53;;;;;;;7.47;3.45;;;25.80;99.90;;;;;;5057873;28;20028;-62
2023/09/08 09:42:20;;;;;;;8.95;3.63;;;25.90;99.90;;;;;;5052495;28;20033;-61
2023/09/08 09:44:51;;;;;;;5.18;3.58;;;26.00;99.80;;;;;;5057157;28;20043;-61
2023/09/08 09:47:17;;;;;;;5.85;3.72;;;26.10;99.70;;;;;;5050828;28;20048;-62
2023/09/08 09:49:47;;;;;;;4.32;3.47;;;26.00;99.90;;;;;;5054700;28;20041;-61
2023/09/08 09:52:14;;;;;;;8.23;3.85;;;26.10;99.30;;;;;;5049876;28;20124;-60
2023/09/08 09:54:43;;;;;;;6.65;3.47;;;26.10;99.20;;;;;;5052425;28;20049;-61
2023/09/08 09:57:15;;;;;;;4.30;3.88;;;26.30;99.40;;;;;;5051853;28;20044;-61
2023/09/08 09:59:41;;;;;;;4.68;4.00;;;26.30;98.60;;;;;;5065018;28;20186;-61
2023/09/08 10:02:13;;;;;;;3.72;3.42;;;26.40;97.70;;;;;;5057968;28;20525;-61
2023/09/08 10:04:41;;;;;;;3.85;3.10;;;26.50;98.80;;;;;;5064607;28;20044;-59
2023/09/08 10:07:07;;;;;;;7.05;4.13;;;26.60;98.10;;;;;;5059952;28;20569;-60
2023/09/08 10:09:33;;;;;;;4.25;3.42;;;26.70;98.30;;;;;;5050841;28;20043;-58
2023/09/08 10:12:05;;;;;;;7.32;4.18;;;26.80;97.90;;;;;;5064089;28;20040;-58
2023/09/08 10:14:32;;;;;;;7.40;4.55;;;26.80;97.90;;;;;;5068391;28;20094;-55
2023/09/08 10:17:00;;;;;;;4.65;3.17;;;26.90;98.50;;;;;;5053750;28;20072;-59
2023/09/08 10:19:27;;;;;;;7.30;3.95;;;27.00;97.60;;;;;;5056527;28;20510;-58
2023/09/08 10:21:57;;;;;;;7.00;3.53;;;27.00;97.80;;;;;;5041459;28;20025;-59
2023/09/08 10:24:28;;;;;;;4.78;3.45;;;27.10;97.60;;;;;;5059422;28;20051;-60
2023/09/08 10:27:14;;;;;;;4.80;3.97;;;27.10;97.10;;;;;;5061555;28;20413;-60
2023/09/08 10:29:40;;;;;;;;;;;27.10;98.20;;;;;;5063742;28;21585;-60
2023/09/08 10:32:07;;;;;;;4.53;4.10;;;27.30;97.10;;;;;;5054041;28;19924;-60
2023/09/08 10:34:35;;;;;;;4.97;3.78;;;27.30;97.30;;;;;;5065444;28;20175;-59
2023/09/08 10:37:02;;;;;;;4.68;3.33;;;27.40;97.20;;;;;;5070370;28;20178;-60
2023/09/08 10:39:29;;;;;;;3.50;3.20;;;27.40;97.20;;;;;;5070029;28;20037;-61
2023/09/08 10:42:19;;;;;;;9.65;4.28;;;27.40;97.10;;;;;;5062638;28;20040;-60
2023/09/08 10:44:55;;;;;;;6.32;3.80;;;27.50;96.70;;;;;;5062174;28;20044;-59
2023/09/08 10:47:39;;;;;;;6.90;3.10;;;27.50;96.40;;;;;;5071461;28;20075;-59
2023/09/08 10:50:06;;;;;;;6.78;3.33;;;27.50;96.40;;;;;;5064403;28;20059;-60
2023/09/08 10:52:33;;;;;;;7.05;3.25;;;27.60;96.40;;;;;;5065977;28;20045;-61
2023/09/08 10:54:59;;;;;;;5.85;4.45;;;27.70;96.70;;;;;;5072360;28;20052;-60
2023/09/08 10:57:25;;;;;;;6.60;3.63;;;27.70;96.30;;;;;;5069586;28;20032;-60
2023/09/08 10:59:53;;;;;;;5.35;3.72;;;27.80;96.10;;;;;;5066353;28;20111;-59
2023/09/08 11:02:36;;;;;;;5.88;3.58;;;27.80;95.60;;;;;;5060195;28;20060;-60
2023/09/08 11:05:04;;;;;;;4.93;4.07;;;27.80;96.80;;;;;;5067869;28;20053;-58
2023/09/08 11:07:31;;;;;;;5.25;3.45;;;27.80;96.90;;;;;;5064117;28;20053;-61
2023/09/08 11:09:57;;;;;;;4.43;2.83;;;27.90;96.20;;;;;;5053574;28;20041;-60
2023/09/08 11:12:25;;;;;;;8.13;3.25;;;28.00;96.30;;;;;;5055043;28;20120;-59
2023/09/08 11:14:51;;;;;;;7.22;3.08;;;28.00;96.40;;;;;;5053311;28;20084;-60
2023/09/08 11:17:16;;;;;;;4.20;3.60;;;28.00;96.20;;;;;;5057438;28;20067;-61
2023/09/08 11:19:47;;;;;;;3.80;3.50;;;28.00;95.80;;;;;;5061100;28;20033;-59
2023/09/08 11:22:13;;;;;;;6.68;4.10;;;28.00;96.30;;;;;;5058143;28;20570;-59
2023/09/08 11:24:41;;;;;;;6.88;3.65;;;28.10;97.20;;;;;;5058487;28;20067;-60
2023/09/08 11:27:06;;;;;;;5.68;3.42;;;28.20;96.40;;;;;;5057752;28;20068;-60
2023/09/08 11:29:32;;;;;;;6.80;3.75;;;28.20;95.60;;;;;;5056532;28;20087;-60
2023/09/08 11:31:58;;;;;;;3.13;2.85;;;28.30;94.40;;;;;;5057373;28;20033;-61
2023/09/08 11:34:24;;;;;;;4.85;2.83;;;28.30;95.30;;;;;;5058528;28;20041;-60
2023/09/08 11:36:51;;;;;;;5.28;2.80;;;28.30;95.60;;;;;;5060897;28;20045;-59
2023/09/08 11:39:17;;;;;;;6.55;3.30;;;28.30;95.60;;;;;;5054096;28;20039;-59
2023/09/08 11:41:43;;;;;;;4.90;3.00;;;28.40;95.80;;;;;;5057233;28;20405;-60
2023/09/08 11:44:08;;;;;;;6.88;2.47;;;28.40;94.70;;;;;;5052561;28;20044;-60
2023/09/08 11:46:34;;;;;;;3.60;3.00;;;28.40;95.00;;;;;;5055248;28;20047;-60
2023/09/08 11:48:59;;;;;;;2.90;2.50;;;28.40;94.00;;;;;;5054204;28;20087;-60
2023/09/08 11:51:27;;;;;;;6.40;2.75;;;28.40;94.30;;;;;;5057469;28;20037;-60
2023/09/08 11:53:52;;;;;;;9.63;3.63;;;28.50;94.30;;;;;;5052839;28;20112;-59
2023/09/08 11:56:18;;;;;;;6.20;3.25;;;28.50;94.30;;;;;;5047996;28;20063;-59
2023/09/08 11:58:44;;;;;;;4.88;2.17;;;28.50;93.80;;;;;;5047986;28;20033;-59
2023/09/08 12:01:10;;;;;;;2.80;2.60;;;28.50;93.60;;;;;;5049952;28;20032;-59
2023/09/08 12:03:54;;;;;;;6.40;2.90;;;28.50;93.20;;;;;;5049614;28;20052;-59
2023/09/08 12:06:23;;;;;;;3.08;2.63;;;28.60;92.90;;;;;;5049169;28;20522;-59
2023/09/08 12:08:49;;;;;;;3.33;2.90;;;28.60;93.80;;;;;;5056164;28;20080;-60
2023/09/08 12:11:14;;;;;;;8.80;3.05;;;28.60;93.50;;;;;;5057387;28;20485;-59
2023/09/08 12:13:40;;;;;;;4.40;2.42;;;28.70;93.20;;;;;;5058198;28;20040;-59
2023/09/08 12:16:19;;;;;;;4.85;3.17;;;28.70;92.80;;;;;;5053653;28;20068;-60
2023/09/08 12:18:45;;;;;;;3.58;2.70;;;28.80;92.30;;;;;;5053879;28;20036;-57
2023/09/08 12:21:11;;;;;;;5.20;3.30;;;28.80;92.70;;;;;;5055820;28;20218;-55
2023/09/08 12:23:51;;;;;;;6.60;2.72;;;28.90;92.60;;;;;;5052748;28;20073;-55
2023/09/08 12:26:17;;;;;;;4.15;2.72;;;28.90;92.70;;;;;;5055381;28;20059;-56
2023/09/08 12:28:43;;;;;;;6.65;2.85;;;28.90;92.90;;;;;;5056967;28;20036;-58
2023/09/08 12:31:18;;;;;;;4.10;2.67;;;29.00;92.80;;;;;;5055444;28;20120;-58
2023/09/08 12:33:44;;;;;;;6.73;2.70;;;29.10;91.80;;;;;;5052853;28;20559;-57
2023/09/08 12:36:16;;;;;;;5.45;2.13;;;29.10;92.20;;;;;;5052966;28;20112;-61
2023/09/08 12:38:52;;;;;;;5.85;2.88;;;29.20;92.10;;;;;;5059413;28;20036;-59
2023/09/08 12:41:19;;;;;;;4.15;2.25;;;29.20;92.20;;;;;;5052988;28;20493;-60
2023/09/08 12:43:45;;;;;;;3.85;3.22;;;29.20;92.50;;;;;;5050331;28;20523;-60